sensor_id;sensor_type;location;lat;lon;timestamp;P1;durP1;ratioP1;P2;durP2;ratioP2
23747;SDS011;12054;53.662;10.126;2023-09-07T00:00:29;7.22;;;4.82;;
23747;SDS011;12054;53.662;10.126;2023-09-07T00:02:55;5.38;;;4.72;;
23747;SDS011;12054;53.662;10.126;2023-09-07T00:05:20;5.13;;;4.72;;
23747;SDS011;12054;53.662;10.126;2023-09-07T00:07:46;5.45;;;4.95;;
23747;SDS011;12054;53.662;10.126;2023-09-07T00:10:11;6.95;;;5.20;;
23747;SDS011;12054;53.662;10.126;2023-09-07T00:12:37;5.40;;;4.90;;
23747;SDS011;12054;53.662;10.126;2023-09-07T00:15:04;5.80;;;5.15;;
23747;SDS011;12054;53.662;10.126;2023-09-07T00:17:31;7.35;;;4.85;;
23747;SDS011;12054;53.662;10.126;2023-09-07T00:19:57;6.35;;;5.40;;
23747;SDS011;12054;53.662;10.126;2023-09-07T00:22:23;6.88;;;5.40;;
23747;SDS011;12054;53.662;10.126;2023-09-07T00:24:50;5.88;;;5.30;;
23747;SDS011;12054;53.662;10.126;2023-09-07T00:27:16;5.88;;;4.70;;
23747;SDS011;12054;53.662;10.126;2023-09-07T00:29:41;5.20;;;4.70;;
23747;SDS011;12054;53.662;10.126;2023-09-07T00:32:07;6.80;;;4.95;;
23747;SDS011;12054;53.662;10.126;2023-09-07T00:34:34;6.93;;;5.40;;
23747;SDS011;12054;53.662;10.126;2023-09-07T00:37:00;6.15;;;5.20;;
23747;SDS011;12054;53.662;10.126;2023-09-07T00:39:25;5.70;;;5.20;;
23747;SDS011;12054;53.662;10.126;2023-09-07T00:41:51;8.40;;;5.38;;
23747;SDS011;12054;53.662;10.126;2023-09-07T00:44:16;6.05;;;5.18;;
23747;SDS011;12054;53.662;10.126;2023-09-07T00:46:42;5.13;;;4.63;;
23747;SDS011;12054;53.662;10.126;2023-09-07T00:49:11;7.57;;;5.15;;
23747;SDS011;12054;53.662;10.126;2023-09-07T00:51:39;6.50;;;5.20;;
23747;SDS011;12054;53.662;10.126;2023-09-07T00:54:04;6.18;;;5.60;;
23747;SDS011;12054;53.662;10.126;2023-09-07T00:56:30;5.80;;;5.30;;
23747;SDS011;12054;53.662;10.126;2023-09-07T00:58:56;6.00;;;5.20;;
23747;SDS011;12054;53.662;10.126;2023-09-07T01:01:25;5.68;;;5.18;;
23747;SDS011;12054;53.662;10.126;2023-09-07T01:03:51;7.68;;;4.88;;
23747;SDS011;12054;53.662;10.126;2023-09-07T01:06:22;6.30;;;5.07;;
23747;SDS011;12054;53.662;10.126;2023-09-07T01:08:55;6.22;;;5.10;;
23747;SDS011;12054;53.662;10.126;2023-09-07T01:11:25;4.78;;;4.38;;
23747;SDS011;12054;53.662;10.126;2023-09-07T01:13:51;8.93;;;4.97;;
23747;SDS011;12054;53.662;10.126;2023-09-07T01:16:18;5.22;;;4.72;;
23747;SDS011;12054;53.662;10.126;2023-09-07T01:18:46;7.07;;;5.40;;
23747;SDS011;12054;53.662;10.126;2023-09-07T01:21:12;5.70;;;5.07;;
23747;SDS011;12054;53.662;10.126;2023-09-07T01:23:40;5.60;;;4.88;;
23747;SDS011;12054;53.662;10.126;2023-09-07T01:26:07;5.15;;;4.65;;
23747;SDS011;12054;53.662;10.126;2023-09-07T01:28:37;5.03;;;4.53;;
23747;SDS011;12054;53.662;10.126;2023-09-07T01:31:03;4.88;;;4.38;;
23747;SDS011;12054;53.662;10.126;2023-09-07T01:33:29;5.10;;;4.38;;
23747;SDS011;12054;53.662;10.126;2023-09-07T01:35:54;5.40;;;4.55;;
23747;SDS011;12054;53.662;10.126;2023-09-07T01:38:20;4.70;;;4.30;;
23747;SDS011;12054;53.662;10.126;2023-09-07T01:40:45;5.45;;;4.30;;
23747;SDS011;12054;53.662;10.126;2023-09-07T01:43:11;5.07;;;4.55;;
23747;SDS011;12054;53.662;10.126;2023-09-07T01:45:37;4.70;;;4.30;;
23747;SDS011;12054;53.662;10.126;2023-09-07T01:48:02;10.05;;;4.85;;
23747;SDS011;12054;53.662;10.126;2023-09-07T01:50:28;6.57;;;4.75;;
23747;SDS011;12054;53.662;10.126;2023-09-07T01:52:54;5.63;;;4.78;;
23747;SDS011;12054;53.662;10.126;2023-09-07T01:55:19;4.20;;;3.80;;
23747;SDS011;12054;53.662;10.126;2023-09-07T01:57:45;3.90;;;3.60;;
23747;SDS011;12054;53.662;10.126;2023-09-07T02:00:11;4.47;;;3.92;;
23747;SDS011;12054;53.662;10.126;2023-09-07T02:02:37;4.53;;;4.13;;
23747;SDS011;12054;53.662;10.126;2023-09-07T02:05:03;4.38;;;3.95;;
23747;SDS011;12054;53.662;10.126;2023-09-07T02:07:29;4.60;;;4.20;;
23747;SDS011;12054;53.662;10.126;2023-09-07T02:09:54;3.67;;;3.38;;
23747;SDS011;12054;53.662;10.126;2023-09-07T02:12:20;3.42;;;3.13;;
23747;SDS011;12054;53.662;10.126;2023-09-07T02:14:45;3.70;;;2.70;;
23747;SDS011;12054;53.662;10.126;2023-09-07T02:17:11;3.80;;;3.20;;
23747;SDS011;12054;53.662;10.126;2023-09-07T02:19:42;3.85;;;2.90;;
23747;SDS011;12054;53.662;10.126;2023-09-07T02:22:08;3.42;;;3.13;;
23747;SDS011;12054;53.662;10.126;2023-09-07T02:24:34;3.58;;;3.28;;
23747;SDS011;12054;53.662;10.126;2023-09-07T02:26:59;4.25;;;2.90;;
23747;SDS011;12054;53.662;10.126;2023-09-07T02:29:25;3.60;;;3.30;;
23747;SDS011;12054;53.662;10.126;2023-09-07T02:31:51;4.10;;;3.80;;
23747;SDS011;12054;53.662;10.126;2023-09-07T02:34:17;4.45;;;4.05;;
23747;SDS011;12054;53.662;10.126;2023-09-07T02:36:43;4.25;;;3.55;;
23747;SDS011;12054;53.662;10.126;2023-09-07T02:39:08;4.28;;;3.88;;
23747;SDS011;12054;53.662;10.126;2023-09-07T02:41:36;4.40;;;4.00;;
23747;SDS011;12054;53.662;10.126;2023-09-07T02:44:02;4.30;;;3.97;;
23747;SDS011;12054;53.662;10.126;2023-09-07T02:46:28;4.60;;;4.20;;
23747;SDS011;12054;53.662;10.126;2023-09-07T02:48:53;5.25;;;4.53;;
23747;SDS011;12054;53.662;10.126;2023-09-07T02:51:23;5.03;;;4.38;;
23747;SDS011;12054;53.662;10.126;2023-09-07T02:53:49;7.40;;;4.18;;
23747;SDS011;12054;53.662;10.126;2023-09-07T02:56:15;5.18;;;4.68;;
23747;SDS011;12054;53.662;10.126;2023-09-07T02:58:41;5.13;;;4.63;;
23747;SDS011;12054;53.662;10.126;2023-09-07T03:01:07;4.55;;;4.13;;
23747;SDS011;12054;53.662;10.126;2023-09-07T03:03:35;6.28;;;4.32;;
23747;SDS011;12054;53.662;10.126;2023-09-07T03:06:08;6.28;;;5.05;;
23747;SDS011;12054;53.662;10.126;2023-09-07T03:08:45;5.53;;;4.93;;
23747;SDS011;12054;53.662;10.126;2023-09-07T03:11:10;5.10;;;4.40;;
23747;SDS011;12054;53.662;10.126;2023-09-07T03:13:37;6.20;;;5.03;;
23747;SDS011;12054;53.662;10.126;2023-09-07T03:16:02;5.70;;;5.20;;
23747;SDS011;12054;53.662;10.126;2023-09-07T03:18:29;5.68;;;4.80;;
23747;SDS011;12054;53.662;10.126;2023-09-07T03:20:55;6.72;;;5.15;;
23747;SDS011;12054;53.662;10.126;2023-09-07T03:23:24;40.88;;;6.03;;
23747;SDS011;12054;53.662;10.126;2023-09-07T03:25:49;5.60;;;4.53;;
23747;SDS011;12054;53.662;10.126;2023-09-07T03:28:15;5.20;;;4.70;;
23747;SDS011;12054;53.662;10.126;2023-09-07T03:30:41;5.20;;;4.78;;
23747;SDS011;12054;53.662;10.126;2023-09-07T03:33:06;6.88;;;4.85;;
23747;SDS011;12054;53.662;10.126;2023-09-07T03:35:32;4.80;;;4.40;;
23747;SDS011;12054;53.662;10.126;2023-09-07T03:37:58;6.03;;;5.43;;
23747;SDS011;12054;53.662;10.126;2023-09-07T03:40:23;5.50;;;5.00;;
23747;SDS011;12054;53.662;10.126;2023-09-07T03:42:49;3.90;;;3.60;;
23747;SDS011;12054;53.662;10.126;2023-09-07T03:45:15;4.47;;;3.45;;
23747;SDS011;12054;53.662;10.126;2023-09-07T03:47:40;4.63;;;4.22;;
23747;SDS011;12054;53.662;10.126;2023-09-07T03:50:06;4.03;;;3.63;;
23747;SDS011;12054;53.662;10.126;2023-09-07T03:52:32;4.50;;;4.10;;
23747;SDS011;12054;53.662;10.126;2023-09-07T03:54:59;3.47;;;3.17;;
23747;SDS011;12054;53.662;10.126;2023-09-07T03:57:25;1.88;;;1.73;;
23747;SDS011;12054;53.662;10.126;2023-09-07T03:59:51;2.38;;;2.20;;
23747;SDS011;12054;53.662;10.126;2023-09-07T04:02:16;2.40;;;2.20;;
23747;SDS011;12054;53.662;10.126;2023-09-07T04:04:42;2.20;;;2.00;;
23747;SDS011;12054;53.662;10.126;2023-09-07T04:07:09;3.45;;;3.15;;
23747;SDS011;12054;53.662;10.126;2023-09-07T04:09:34;3.65;;;3.35;;
23747;SDS011;12054;53.662;10.126;2023-09-07T04:12:00;3.70;;;3.40;;
23747;SDS011;12054;53.662;10.126;2023-09-07T04:14:25;4.10;;;3.60;;
23747;SDS011;12054;53.662;10.126;2023-09-07T04:16:51;6.38;;;4.10;;
23747;SDS011;12054;53.662;10.126;2023-09-07T04:19:17;4.78;;;3.70;;
23747;SDS011;12054;53.662;10.126;2023-09-07T04:21:42;4.43;;;3.88;;
23747;SDS011;12054;53.662;10.126;2023-09-07T04:24:08;13.50;;;4.32;;
23747;SDS011;12054;53.662;10.126;2023-09-07T04:26:34;76.63;;;6.80;;
23747;SDS011;12054;53.662;10.126;2023-09-07T04:28:59;8.30;;;4.60;;
23747;SDS011;12054;53.662;10.126;2023-09-07T04:31:25;4.18;;;3.75;;
23747;SDS011;12054;53.662;10.126;2023-09-07T04:33:52;3.85;;;3.47;;
23747;SDS011;12054;53.662;10.126;2023-09-07T04:36:18;5.38;;;4.40;;
23747;SDS011;12054;53.662;10.126;2023-09-07T04:38:44;4.38;;;3.97;;
23747;SDS011;12054;53.662;10.126;2023-09-07T04:41:10;4.57;;;3.92;;
23747;SDS011;12054;53.662;10.126;2023-09-07T04:43:37;5.05;;;4.65;;
23747;SDS011;12054;53.662;10.126;2023-09-07T04:46:10;4.32;;;3.60;;
23747;SDS011;12054;53.662;10.126;2023-09-07T04:48:37;4.10;;;3.72;;
23747;SDS011;12054;53.662;10.126;2023-09-07T04:51:03;46.80;;;7.13;;
23747;SDS011;12054;53.662;10.126;2023-09-07T04:53:31;23.38;;;5.47;;
23747;SDS011;12054;53.662;10.126;2023-09-07T04:55:58;5.45;;;4.70;;
23747;SDS011;12054;53.662;10.126;2023-09-07T04:58:24;9.23;;;5.57;;
23747;SDS011;12054;53.662;10.126;2023-09-07T05:00:50;6.78;;;6.07;;
23747;SDS011;12054;53.662;10.126;2023-09-07T05:03:16;115.05;;;10.20;;
23747;SDS011;12054;53.662;10.126;2023-09-07T05:05:42;16.23;;;5.65;;
23747;SDS011;12054;53.662;10.126;2023-09-07T05:08:08;6.30;;;4.97;;
23747;SDS011;12054;53.662;10.126;2023-09-07T05:10:34;4.30;;;3.70;;
23747;SDS011;12054;53.662;10.126;2023-09-07T05:13:00;5.28;;;4.47;;
23747;SDS011;12054;53.662;10.126;2023-09-07T05:15:26;6.10;;;4.68;;
23747;SDS011;12054;53.662;10.126;2023-09-07T05:17:52;5.38;;;4.55;;
23747;SDS011;12054;53.662;10.126;2023-09-07T05:20:18;6.00;;;4.88;;
23747;SDS011;12054;53.662;10.126;2023-09-07T05:22:44;5.45;;;4.95;;
23747;SDS011;12054;53.662;10.126;2023-09-07T05:25:10;5.93;;;5.38;;
23747;SDS011;12054;53.662;10.126;2023-09-07T05:27:36;7.00;;;5.50;;
23747;SDS011;12054;53.662;10.126;2023-09-07T05:30:03;5.70;;;5.20;;
23747;SDS011;12054;53.662;10.126;2023-09-07T05:32:29;6.97;;;5.80;;
23747;SDS011;12054;53.662;10.126;2023-09-07T05:34:55;7.60;;;6.28;;
23747;SDS011;12054;53.662;10.126;2023-09-07T05:37:20;7.15;;;6.45;;
23747;SDS011;12054;53.662;10.126;2023-09-07T05:39:46;7.22;;;5.80;;
23747;SDS011;12054;53.662;10.126;2023-09-07T05:42:12;6.32;;;5.50;;
23747;SDS011;12054;53.662;10.126;2023-09-07T05:44:37;6.55;;;5.65;;
23747;SDS011;12054;53.662;10.126;2023-09-07T05:47:03;7.13;;;6.35;;
23747;SDS011;12054;53.662;10.126;2023-09-07T05:49:29;7.97;;;6.97;;
23747;SDS011;12054;53.662;10.126;2023-09-07T05:51:55;7.57;;;6.88;;
23747;SDS011;12054;53.662;10.126;2023-09-07T05:54:21;8.48;;;7.43;;
23747;SDS011;12054;53.662;10.126;2023-09-07T05:56:46;8.23;;;6.72;;
23747;SDS011;12054;53.662;10.126;2023-09-07T05:59:12;10.27;;;8.20;;
23747;SDS011;12054;53.662;10.126;2023-09-07T06:01:38;10.90;;;8.18;;
23747;SDS011;12054;53.662;10.126;2023-09-07T06:04:04;8.82;;;7.97;;
23747;SDS011;12054;53.662;10.126;2023-09-07T06:06:31;9.27;;;7.82;;
23747;SDS011;12054;53.662;10.126;2023-09-07T06:08:56;10.48;;;8.40;;
23747;SDS011;12054;53.662;10.126;2023-09-07T06:11:24;9.65;;;8.02;;
23747;SDS011;12054;53.662;10.126;2023-09-07T06:13:49;8.63;;;7.80;;
23747;SDS011;12054;53.662;10.126;2023-09-07T06:16:15;9.40;;;8.40;;
23747;SDS011;12054;53.662;10.126;2023-09-07T06:18:41;9.07;;;7.90;;
23747;SDS011;12054;53.662;10.126;2023-09-07T06:21:07;10.18;;;7.93;;
23747;SDS011;12054;53.662;10.126;2023-09-07T06:23:33;7.85;;;7.05;;
23747;SDS011;12054;53.662;10.126;2023-09-07T06:25:59;9.00;;;8.00;;
23747;SDS011;12054;53.662;10.126;2023-09-07T06:28:25;8.95;;;8.05;;
23747;SDS011;12054;53.662;10.126;2023-09-07T06:30:50;9.40;;;8.15;;
23747;SDS011;12054;53.662;10.126;2023-09-07T06:33:16;8.60;;;7.70;;
23747;SDS011;12054;53.662;10.126;2023-09-07T06:35:42;10.18;;;8.20;;
23747;SDS011;12054;53.662;10.126;2023-09-07T06:38:07;10.07;;;8.38;;
23747;SDS011;12054;53.662;10.126;2023-09-07T06:40:33;9.48;;;8.45;;
23747;SDS011;12054;53.662;10.126;2023-09-07T06:42:58;8.85;;;8.05;;
23747;SDS011;12054;53.662;10.126;2023-09-07T06:45:25;8.85;;;7.95;;
23747;SDS011;12054;53.662;10.126;2023-09-07T06:47:50;9.30;;;8.40;;
23747;SDS011;12054;53.662;10.126;2023-09-07T06:50:16;9.00;;;8.05;;
23747;SDS011;12054;53.662;10.126;2023-09-07T06:52:41;8.52;;;7.68;;
23747;SDS011;12054;53.662;10.126;2023-09-07T06:55:07;8.80;;;7.90;;
23747;SDS011;12054;53.662;10.126;2023-09-07T06:57:32;7.90;;;7.13;;
23747;SDS011;12054;53.662;10.126;2023-09-07T07:00:02;8.40;;;7.60;;
23747;SDS011;12054;53.662;10.126;2023-09-07T07:02:30;8.68;;;7.78;;
23747;SDS011;12054;53.662;10.126;2023-09-07T07:04:56;9.73;;;6.85;;
23747;SDS011;12054;53.662;10.126;2023-09-07T07:07:21;6.72;;;6.00;;
23747;SDS011;12054;53.662;10.126;2023-09-07T07:09:47;7.57;;;6.60;;
23747;SDS011;12054;53.662;10.126;2023-09-07T07:12:13;7.78;;;6.55;;
23747;SDS011;12054;53.662;10.126;2023-09-07T07:14:39;6.70;;;5.97;;
23747;SDS011;12054;53.662;10.126;2023-09-07T07:17:04;5.82;;;5.22;;
23747;SDS011;12054;53.662;10.126;2023-09-07T07:19:30;7.07;;;5.78;;
23747;SDS011;12054;53.662;10.126;2023-09-07T07:21:56;6.40;;;5.57;;
23747;SDS011;12054;53.662;10.126;2023-09-07T07:24:21;6.68;;;5.95;;
23747;SDS011;12054;53.662;10.126;2023-09-07T07:26:47;6.22;;;5.30;;
23747;SDS011;12054;53.662;10.126;2023-09-07T07:29:13;6.72;;;5.70;;
23747;SDS011;12054;53.662;10.126;2023-09-07T07:31:38;6.18;;;5.43;;
23747;SDS011;12054;53.662;10.126;2023-09-07T07:34:04;7.63;;;5.88;;
23747;SDS011;12054;53.662;10.126;2023-09-07T07:36:29;7.70;;;5.85;;
23747;SDS011;12054;53.662;10.126;2023-09-07T07:38:55;6.00;;;5.50;;
23747;SDS011;12054;53.662;10.126;2023-09-07T07:41:21;5.97;;;5.35;;
23747;SDS011;12054;53.662;10.126;2023-09-07T07:43:47;8.27;;;5.80;;
23747;SDS011;12054;53.662;10.126;2023-09-07T07:46:12;5.80;;;5.30;;
23747;SDS011;12054;53.662;10.126;2023-09-07T07:48:40;7.30;;;5.95;;
23747;SDS011;12054;53.662;10.126;2023-09-07T07:51:07;7.35;;;5.47;;
23747;SDS011;12054;53.662;10.126;2023-09-07T07:53:33;7.55;;;5.53;;
23747;SDS011;12054;53.662;10.126;2023-09-07T07:55:59;6.63;;;5.45;;
23747;SDS011;12054;53.662;10.126;2023-09-07T07:58:25;6.80;;;6.10;;
23747;SDS011;12054;53.662;10.126;2023-09-07T08:00:50;7.57;;;5.18;;
23747;SDS011;12054;53.662;10.126;2023-09-07T08:03:16;6.90;;;5.20;;
23747;SDS011;12054;53.662;10.126;2023-09-07T08:05:42;8.23;;;5.55;;
23747;SDS011;12054;53.662;10.126;2023-09-07T08:08:10;5.97;;;5.15;;
23747;SDS011;12054;53.662;10.126;2023-09-07T08:10:36;6.07;;;5.47;;
23747;SDS011;12054;53.662;10.126;2023-09-07T08:13:03;6.13;;;5.50;;
23747;SDS011;12054;53.662;10.126;2023-09-07T08:15:29;6.32;;;5.40;;
23747;SDS011;12054;53.662;10.126;2023-09-07T08:17:56;6.97;;;5.43;;
23747;SDS011;12054;53.662;10.126;2023-09-07T08:20:22;5.40;;;4.90;;
23747;SDS011;12054;53.662;10.126;2023-09-07T08:22:49;9.10;;;5.47;;
23747;SDS011;12054;53.662;10.126;2023-09-07T08:25:15;5.85;;;5.35;;
23747;SDS011;12054;53.662;10.126;2023-09-07T08:27:41;7.43;;;5.28;;
23747;SDS011;12054;53.662;10.126;2023-09-07T08:30:12;5.80;;;5.20;;
23747;SDS011;12054;53.662;10.126;2023-09-07T08:32:40;5.68;;;5.18;;
23747;SDS011;12054;53.662;10.126;2023-09-07T08:35:06;5.85;;;5.18;;
23747;SDS011;12054;53.662;10.126;2023-09-07T08:37:34;7.40;;;5.63;;
23747;SDS011;12054;53.662;10.126;2023-09-07T08:39:59;6.75;;;5.40;;
23747;SDS011;12054;53.662;10.126;2023-09-07T08:42:25;7.28;;;5.68;;
23747;SDS011;12054;53.662;10.126;2023-09-07T08:44:51;6.97;;;5.60;;
23747;SDS011;12054;53.662;10.126;2023-09-07T08:47:19;5.72;;;5.15;;
23747;SDS011;12054;53.662;10.126;2023-09-07T08:49:45;6.30;;;4.95;;
23747;SDS011;12054;53.662;10.126;2023-09-07T08:52:12;5.50;;;5.10;;
23747;SDS011;12054;53.662;10.126;2023-09-07T08:54:40;5.72;;;5.20;;
23747;SDS011;12054;53.662;10.126;2023-09-07T08:57:07;6.22;;;5.63;;
23747;SDS011;12054;53.662;10.126;2023-09-07T08:59:35;5.60;;;4.97;;
23747;SDS011;12054;53.662;10.126;2023-09-07T09:02:01;6.18;;;5.68;;
23747;SDS011;12054;53.662;10.126;2023-09-07T09:04:29;6.55;;;5.38;;
23747;SDS011;12054;53.662;10.126;2023-09-07T09:06:55;5.70;;;5.18;;
23747;SDS011;12054;53.662;10.126;2023-09-07T09:09:21;5.18;;;4.78;;
23747;SDS011;12054;53.662;10.126;2023-09-07T09:11:51;6.32;;;5.68;;
23747;SDS011;12054;53.662;10.126;2023-09-07T09:14:17;6.03;;;4.95;;
23747;SDS011;12054;53.662;10.126;2023-09-07T09:16:49;8.30;;;5.00;;
23747;SDS011;12054;53.662;10.126;2023-09-07T09:19:15;7.75;;;5.53;;
23747;SDS011;12054;53.662;10.126;2023-09-07T09:21:42;5.93;;;5.30;;
23747;SDS011;12054;53.662;10.126;2023-09-07T09:24:11;6.28;;;5.68;;
23747;SDS011;12054;53.662;10.126;2023-09-07T09:26:37;6.32;;;5.72;;
23747;SDS011;12054;53.662;10.126;2023-09-07T09:29:03;8.70;;;5.65;;
23747;SDS011;12054;53.662;10.126;2023-09-07T09:31:29;5.75;;;5.05;;
23747;SDS011;12054;53.662;10.126;2023-09-07T09:33:55;7.68;;;5.45;;
23747;SDS011;12054;53.662;10.126;2023-09-07T09:36:21;6.63;;;5.47;;
23747;SDS011;12054;53.662;10.126;2023-09-07T09:38:50;6.03;;;5.38;;
23747;SDS011;12054;53.662;10.126;2023-09-07T09:41:18;6.22;;;5.25;;
23747;SDS011;12054;53.662;10.126;2023-09-07T09:43:46;6.20;;;5.38;;
23747;SDS011;12054;53.662;10.126;2023-09-07T09:46:14;6.07;;;5.30;;
23747;SDS011;12054;53.662;10.126;2023-09-07T09:48:40;6.65;;;5.95;;
23747;SDS011;12054;53.662;10.126;2023-09-07T09:51:07;6.95;;;5.63;;
23747;SDS011;12054;53.662;10.126;2023-09-07T09:53:33;5.80;;;5.22;;
23747;SDS011;12054;53.662;10.126;2023-09-07T09:55:59;5.55;;;5.05;;
23747;SDS011;12054;53.662;10.126;2023-09-07T09:58:25;5.82;;;5.32;;
23747;SDS011;12054;53.662;10.126;2023-09-07T10:00:56;8.93;;;5.30;;
23747;SDS011;12054;53.662;10.126;2023-09-07T10:03:31;5.90;;;5.10;;
23747;SDS011;12054;53.662;10.126;2023-09-07T10:06:08;5.95;;;5.45;;
23747;SDS011;12054;53.662;10.126;2023-09-07T10:08:50;6.10;;;5.45;;
23747;SDS011;12054;53.662;10.126;2023-09-07T10:11:36;6.50;;;5.22;;
23747;SDS011;12054;53.662;10.126;2023-09-07T10:14:03;6.65;;;5.43;;
23747;SDS011;12054;53.662;10.126;2023-09-07T10:19:18;6.05;;;5.50;;
23747;SDS011;12054;53.662;10.126;2023-09-07T10:21:46;5.53;;;5.00;;
23747;SDS011;12054;53.662;10.126;2023-09-07T10:24:12;6.82;;;5.40;;
23747;SDS011;12054;53.662;10.126;2023-09-07T10:27:02;6.68;;;5.10;;
23747;SDS011;12054;53.662;10.126;2023-09-07T10:29:39;5.63;;;5.13;;
23747;SDS011;12054;53.662;10.126;2023-09-07T10:32:06;5.53;;;4.20;;
23747;SDS011;12054;53.662;10.126;2023-09-07T10:34:34;6.18;;;4.78;;
23747;SDS011;12054;53.662;10.126;2023-09-07T10:37:02;5.85;;;4.30;;
23747;SDS011;12054;53.662;10.126;2023-09-07T10:39:31;5.88;;;4.40;;
23747;SDS011;12054;53.662;10.126;2023-09-07T10:41:57;5.53;;;4.72;;
23747;SDS011;12054;53.662;10.126;2023-09-07T10:44:26;5.30;;;4.63;;
23747;SDS011;12054;53.662;10.126;2023-09-07T10:46:52;5.10;;;4.50;;
23747;SDS011;12054;53.662;10.126;2023-09-07T10:49:19;6.70;;;4.43;;
23747;SDS011;12054;53.662;10.126;2023-09-07T10:51:45;5.03;;;4.22;;
23747;SDS011;12054;53.662;10.126;2023-09-07T10:54:18;5.07;;;4.25;;
23747;SDS011;12054;53.662;10.126;2023-09-07T10:56:48;4.75;;;4.20;;
23747;SDS011;12054;53.662;10.126;2023-09-07T10:59:15;6.15;;;4.80;;
23747;SDS011;12054;53.662;10.126;2023-09-07T11:01:43;6.97;;;4.80;;
23747;SDS011;12054;53.662;10.126;2023-09-07T11:04:10;5.18;;;4.70;;
23747;SDS011;12054;53.662;10.126;2023-09-07T11:06:36;5.60;;;3.90;;
23747;SDS011;12054;53.662;10.126;2023-09-07T11:09:03;4.55;;;4.15;;
23747;SDS011;12054;53.662;10.126;2023-09-07T11:11:30;5.10;;;4.13;;
23747;SDS011;12054;53.662;10.126;2023-09-07T11:13:58;3.95;;;3.60;;
23747;SDS011;12054;53.662;10.126;2023-09-07T11:16:25;5.43;;;3.83;;
23747;SDS011;12054;53.662;10.126;2023-09-07T11:18:52;4.47;;;4.07;;
23747;SDS011;12054;53.662;10.126;2023-09-07T11:21:19;4.93;;;4.00;;
23747;SDS011;12054;53.662;10.126;2023-09-07T11:23:45;4.65;;;3.88;;
23747;SDS011;12054;53.662;10.126;2023-09-07T11:26:11;5.07;;;4.22;;
23747;SDS011;12054;53.662;10.126;2023-09-07T11:28:37;5.13;;;4.22;;
23747;SDS011;12054;53.662;10.126;2023-09-07T11:31:03;4.50;;;3.92;;
23747;SDS011;12054;53.662;10.126;2023-09-07T11:33:31;3.85;;;3.55;;
23747;SDS011;12054;53.662;10.126;2023-09-07T11:35:58;4.43;;;4.03;;
23747;SDS011;12054;53.662;10.126;2023-09-07T11:38:27;10.57;;;5.07;;
23747;SDS011;12054;53.662;10.126;2023-09-07T11:40:54;4.95;;;4.25;;
23747;SDS011;12054;53.662;10.126;2023-09-07T11:43:19;4.93;;;4.18;;
23747;SDS011;12054;53.662;10.126;2023-09-07T11:45:45;5.63;;;3.97;;
23747;SDS011;12054;53.662;10.126;2023-09-07T11:48:11;7.18;;;4.45;;
23747;SDS011;12054;53.662;10.126;2023-09-07T11:50:37;4.50;;;4.10;;
23747;SDS011;12054;53.662;10.126;2023-09-07T11:53:05;3.92;;;3.53;;
23747;SDS011;12054;53.662;10.126;2023-09-07T11:55:32;5.05;;;4.55;;
23747;SDS011;12054;53.662;10.126;2023-09-07T11:58:00;4.18;;;3.78;;
23747;SDS011;12054;53.662;10.126;2023-09-07T12:00:26;4.93;;;3.70;;
23747;SDS011;12054;53.662;10.126;2023-09-07T12:02:52;4.00;;;3.35;;
23747;SDS011;12054;53.662;10.126;2023-09-07T12:05:17;3.70;;;3.40;;
23747;SDS011;12054;53.662;10.126;2023-09-07T12:07:44;5.70;;;3.92;;
23747;SDS011;12054;53.662;10.126;2023-09-07T12:10:10;4.22;;;3.83;;
23747;SDS011;12054;53.662;10.126;2023-09-07T12:12:39;4.90;;;4.38;;
23747;SDS011;12054;53.662;10.126;2023-09-07T12:15:05;5.35;;;4.45;;
23747;SDS011;12054;53.662;10.126;2023-09-07T12:17:31;5.40;;;4.32;;
23747;SDS011;12054;53.662;10.126;2023-09-07T12:19:57;5.10;;;4.60;;
23747;SDS011;12054;53.662;10.126;2023-09-07T12:22:23;5.07;;;4.57;;
23747;SDS011;12054;53.662;10.126;2023-09-07T12:24:49;5.43;;;4.80;;
23747;SDS011;12054;53.662;10.126;2023-09-07T12:27:14;5.72;;;3.97;;
23747;SDS011;12054;53.662;10.126;2023-09-07T12:29:40;5.90;;;4.45;;
23747;SDS011;12054;53.662;10.126;2023-09-07T12:32:06;5.20;;;4.68;;
23747;SDS011;12054;53.662;10.126;2023-09-07T12:34:32;4.75;;;4.25;;
23747;SDS011;12054;53.662;10.126;2023-09-07T12:36:57;8.73;;;4.72;;
23747;SDS011;12054;53.662;10.126;2023-09-07T12:39:23;4.18;;;3.83;;
23747;SDS011;12054;53.662;10.126;2023-09-07T12:41:49;4.43;;;4.03;;
23747;SDS011;12054;53.662;10.126;2023-09-07T12:44:15;4.88;;;4.45;;
23747;SDS011;12054;53.662;10.126;2023-09-07T12:46:41;4.90;;;4.50;;
23747;SDS011;12054;53.662;10.126;2023-09-07T12:49:08;7.78;;;4.70;;
23747;SDS011;12054;53.662;10.126;2023-09-07T12:51:33;5.05;;;4.55;;
23747;SDS011;12054;53.662;10.126;2023-09-07T12:53:59;5.88;;;4.28;;
23747;SDS011;12054;53.662;10.126;2023-09-07T12:56:24;6.40;;;4.45;;
23747;SDS011;12054;53.662;10.126;2023-09-07T12:58:49;5.30;;;4.80;;
23747;SDS011;12054;53.662;10.126;2023-09-07T13:01:17;5.40;;;4.90;;
23747;SDS011;12054;53.662;10.126;2023-09-07T13:03:43;5.18;;;4.68;;
23747;SDS011;12054;53.662;10.126;2023-09-07T13:06:09;4.57;;;4.07;;
23747;SDS011;12054;53.662;10.126;2023-09-07T13:08:36;5.97;;;4.32;;
23747;SDS011;12054;53.662;10.126;2023-09-07T13:11:01;4.53;;;4.03;;
23747;SDS011;12054;53.662;10.126;2023-09-07T13:13:27;4.15;;;3.75;;
23747;SDS011;12054;53.662;10.126;2023-09-07T13:15:57;4.40;;;3.53;;
23747;SDS011;12054;53.662;10.126;2023-09-07T13:18:23;5.50;;;3.70;;
23747;SDS011;12054;53.662;10.126;2023-09-07T13:20:52;4.47;;;3.95;;
23747;SDS011;12054;53.662;10.126;2023-09-07T13:23:24;4.05;;;3.65;;
23747;SDS011;12054;53.662;10.126;2023-09-07T13:25:50;3.90;;;3.60;;
23747;SDS011;12054;53.662;10.126;2023-09-07T13:28:16;6.68;;;3.50;;
23747;SDS011;12054;53.662;10.126;2023-09-07T13:30:41;3.95;;;3.55;;
23747;SDS011;12054;53.662;10.126;2023-09-07T13:33:07;4.20;;;3.80;;
23747;SDS011;12054;53.662;10.126;2023-09-07T13:35:33;5.03;;;3.72;;
23747;SDS011;12054;53.662;10.126;2023-09-07T13:37:58;4.30;;;3.90;;
23747;SDS011;12054;53.662;10.126;2023-09-07T13:40:24;4.40;;;4.00;;
23747;SDS011;12054;53.662;10.126;2023-09-07T13:42:54;4.35;;;3.60;;
23747;SDS011;12054;53.662;10.126;2023-09-07T13:45:20;4.03;;;3.55;;
23747;SDS011;12054;53.662;10.126;2023-09-07T13:47:45;4.38;;;3.97;;
23747;SDS011;12054;53.662;10.126;2023-09-07T13:50:11;4.22;;;3.83;;
23747;SDS011;12054;53.662;10.126;2023-09-07T13:52:37;4.53;;;3.92;;
23747;SDS011;12054;53.662;10.126;2023-09-07T13:55:03;4.47;;;3.90;;
23747;SDS011;12054;53.662;10.126;2023-09-07T13:57:28;5.35;;;4.03;;
23747;SDS011;12054;53.662;10.126;2023-09-07T13:59:54;3.92;;;3.53;;
23747;SDS011;12054;53.662;10.126;2023-09-07T14:02:20;4.22;;;3.83;;
23747;SDS011;12054;53.662;10.126;2023-09-07T14:04:46;6.60;;;3.88;;
23747;SDS011;12054;53.662;10.126;2023-09-07T14:07:11;3.88;;;3.53;;
23747;SDS011;12054;53.662;10.126;2023-09-07T14:09:37;5.35;;;4.03;;
23747;SDS011;12054;53.662;10.126;2023-09-07T14:12:03;4.35;;;3.95;;
23747;SDS011;12054;53.662;10.126;2023-09-07T14:14:29;4.53;;;3.50;;
23747;SDS011;12054;53.662;10.126;2023-09-07T14:16:54;4.18;;;3.63;;
23747;SDS011;12054;53.662;10.126;2023-09-07T14:19:22;3.60;;;3.30;;
23747;SDS011;12054;53.662;10.126;2023-09-07T14:21:48;4.60;;;3.95;;
23747;SDS011;12054;53.662;10.126;2023-09-07T14:24:13;4.78;;;3.80;;
23747;SDS011;12054;53.662;10.126;2023-09-07T14:26:39;4.75;;;3.90;;
23747;SDS011;12054;53.662;10.126;2023-09-07T14:29:05;6.13;;;3.83;;
23747;SDS011;12054;53.662;10.126;2023-09-07T14:31:30;4.05;;;3.65;;